createdAt,value
2022-09-20T00:00:15.346Z,3
2022-09-20T00:01:15.401Z,3
2022-09-20T00:02:15.372Z,3
2022-09-20T00:03:15.334Z,3
2022-09-20T00:04:15.302Z,3
2022-09-20T00:05:15.358Z,3
2022-09-20T00:06:15.292Z,3
2022-09-20T00:07:15.284Z,4
2022-09-20T00:08:15.307Z,3
2022-09-20T00:09:15.295Z,4
2022-09-20T00:10:15.402Z,4
2022-09-20T00:11:15.319Z,3
2022-09-20T00:12:15.289Z,3
2022-09-20T00:13:15.292Z,3
2022-09-20T00:14:15.303Z,3
2022-09-20T00:15:15.296Z,3
2022-09-20T00:16:15.344Z,3
2022-09-20T00:17:15.362Z,3
2022-09-20T00:18:15.381Z,4
2022-09-20T00:19:15.308Z,4
2022-09-20T00:20:15.346Z,3
2022-09-20T00:21:15.374Z,3
2022-09-20T00:22:15.369Z,4
2022-09-20T00:23:15.316Z,4
2022-09-20T00:24:15.299Z,3
2022-09-20T00:25:15.355Z,4
2022-09-20T00:26:15.410Z,4
2022-09-20T00:27:15.303Z,4
2022-09-20T00:28:15.284Z,4
2022-09-20T00:29:15.299Z,4
2022-09-20T00:30:15.315Z,4
2022-09-20T00:31:15.482Z,4
2022-09-20T00:32:15.403Z,4
2022-09-20T00:33:15.448Z,4
2022-09-20T00:34:15.334Z,4
2022-09-20T00:35:15.295Z,4
2022-09-20T00:36:15.291Z,3
2022-09-20T00:37:15.298Z,4
2022-09-20T00:38:15.407Z,3
2022-09-20T00:39:15.389Z,3
2022-09-20T00:40:15.444Z,3
2022-09-20T00:41:15.343Z,4
2022-09-20T00:42:15.427Z,4
2022-09-20T00:43:15.289Z,3
2022-09-20T00:44:15.286Z,4
2022-09-20T00:45:15.366Z,4
2022-09-20T00:46:15.354Z,5
2022-09-20T00:47:15.290Z,4
2022-09-20T00:48:15.330Z,3
2022-09-20T00:49:15.324Z,4
2022-09-20T00:50:15.306Z,4
2022-09-20T00:51:15.351Z,4
2022-09-20T00:52:15.360Z,5
2022-09-20T00:53:15.391Z,5
2022-09-20T00:54:19.980Z,5
2022-09-20T00:55:15.302Z,5
2022-09-20T00:56:15.386Z,5
2022-09-20T00:57:15.411Z,5
2022-09-20T00:58:15.286Z,5
2022-09-20T00:59:15.337Z,4
2022-09-20T01:00:15.323Z,5
2022-09-20T01:01:15.480Z,5
2022-09-20T01:02:15.397Z,5
2022-09-20T01:03:15.327Z,4
2022-09-20T01:04:15.349Z,5
2022-09-20T01:05:15.362Z,4
2022-09-20T01:06:15.364Z,4
2022-09-20T01:07:15.291Z,4
2022-09-20T01:08:15.395Z,5
2022-09-20T01:09:15.284Z,5
2022-09-20T01:10:15.363Z,4
2022-09-20T01:11:15.289Z,4
2022-09-20T01:12:15.397Z,4
2022-09-20T01:13:15.418Z,5
2022-09-20T01:14:15.295Z,4
2022-09-20T01:15:15.305Z,5
2022-09-20T01:16:15.331Z,4
2022-09-20T01:17:15.319Z,4
2022-09-20T01:18:15.286Z,4
2022-09-20T01:19:15.289Z,4
2022-09-20T01:20:15.355Z,4
2022-09-20T01:21:15.326Z,4
2022-09-20T01:22:15.358Z,5
2022-09-20T01:23:15.296Z,5
2022-09-20T01:24:15.310Z,5
2022-09-20T01:25:15.312Z,5
2022-09-20T01:26:15.291Z,5
2022-09-20T01:27:15.390Z,4
2022-09-20T01:28:15.393Z,4
2022-09-20T01:29:15.394Z,4
2022-09-20T01:30:15.324Z,4
2022-09-20T01:31:15.386Z,4
2022-09-20T01:32:15.409Z,4
2022-09-20T01:33:15.446Z,4
2022-09-20T01:34:15.500Z,4
2022-09-20T01:35:15.366Z,4
2022-09-20T01:36:15.339Z,5
2022-09-20T01:37:15.288Z,4
2022-09-20T01:38:15.379Z,5
2022-09-20T01:39:15.365Z,4
2022-09-20T01:40:15.421Z,4
2022-09-20T01:41:15.371Z,4
2022-09-20T01:42:15.363Z,4
2022-09-20T01:43:15.387Z,5
2022-09-20T01:44:15.352Z,5
2022-09-20T01:45:15.316Z,4
2022-09-20T01:46:15.358Z,5
2022-09-20T01:47:15.406Z,5
2022-09-20T01:48:15.313Z,5
2022-09-20T01:49:15.406Z,5
2022-09-20T01:50:15.344Z,5
2022-09-20T01:51:15.421Z,5
2022-09-20T01:52:15.442Z,5
2022-09-20T01:53:15.315Z,5
2022-09-20T01:54:15.301Z,5
2022-09-20T01:55:15.304Z,5
2022-09-20T01:56:15.301Z,5
2022-09-20T01:57:15.292Z,5
2022-09-20T01:58:15.290Z,5
2022-09-20T01:59:24.598Z,6
2022-09-20T02:00:15.412Z,5
2022-09-20T02:01:15.478Z,5
2022-09-20T02:02:15.349Z,6
2022-09-20T02:03:15.339Z,5
2022-09-20T02:04:15.288Z,6
2022-09-20T02:05:15.320Z,5
2022-09-20T02:06:15.335Z,5
2022-09-20T02:07:15.342Z,5
2022-09-20T02:08:15.359Z,5
2022-09-20T02:09:15.350Z,5
2022-09-20T02:10:15.305Z,5
2022-09-20T02:11:15.293Z,6
2022-09-20T02:12:15.358Z,6
2022-09-20T02:13:15.383Z,5
2022-09-20T02:14:15.323Z,6
2022-09-20T02:15:15.363Z,6
2022-09-20T02:16:15.584Z,6
2022-09-20T02:17:15.553Z,6
2022-09-20T02:18:15.549Z,5
2022-09-20T02:19:15.481Z,6
2022-09-20T02:20:15.581Z,6
2022-09-20T02:21:15.621Z,6
2022-09-20T02:22:15.635Z,6
2022-09-20T02:23:15.546Z,6
2022-09-20T02:24:15.280Z,6
2022-09-20T02:25:15.667Z,6
2022-09-20T02:26:15.358Z,7
2022-09-20T02:27:15.356Z,6
2022-09-20T02:28:15.360Z,6
2022-09-20T02:29:15.293Z,6
2022-09-20T02:30:15.360Z,6
2022-09-20T02:31:15.451Z,6
2022-09-20T02:32:15.383Z,5
2022-09-20T02:33:15.284Z,6
2022-09-20T02:34:15.290Z,6
2022-09-20T02:35:15.316Z,6
2022-09-20T02:36:15.288Z,6
2022-09-20T02:37:15.304Z,6
2022-09-20T02:38:15.362Z,6
2022-09-20T02:39:15.327Z,6
2022-09-20T02:40:15.414Z,6
2022-09-20T02:41:15.310Z,6
2022-09-20T02:42:15.357Z,6
2022-09-20T02:43:15.287Z,7
2022-09-20T02:44:15.297Z,6
2022-09-20T02:45:15.318Z,6
2022-09-20T02:46:15.432Z,6
2022-09-20T02:47:15.292Z,6
2022-09-20T02:48:15.298Z,6
2022-09-20T02:49:15.281Z,7
2022-09-20T02:50:15.319Z,6
2022-09-20T02:51:15.301Z,6
2022-09-20T02:52:15.304Z,6
2022-09-20T02:53:15.381Z,7
2022-09-20T02:54:15.338Z,6
2022-09-20T02:55:15.313Z,6
2022-09-20T02:56:15.304Z,7
2022-09-20T02:57:15.286Z,6
2022-09-20T02:58:15.290Z,7
2022-09-20T02:59:15.299Z,6
2022-09-20T03:00:15.334Z,7
2022-09-20T03:01:15.502Z,6
2022-09-20T03:02:15.382Z,7
2022-09-20T03:03:15.283Z,7
2022-09-20T03:04:15.349Z,7
2022-09-20T03:05:15.311Z,7
2022-09-20T03:06:15.296Z,7
2022-09-20T03:07:15.292Z,7
2022-09-20T03:08:15.312Z,7
2022-09-20T03:09:15.335Z,7
2022-09-20T03:10:15.350Z,7
2022-09-20T03:11:15.289Z,7
2022-09-20T03:12:15.291Z,6
2022-09-20T03:13:15.302Z,7
2022-09-20T03:14:15.294Z,6
2022-09-20T03:15:15.374Z,6
2022-09-20T03:16:15.343Z,7
2022-09-20T03:17:15.359Z,7
2022-09-20T03:18:15.373Z,8
2022-09-20T03:19:15.304Z,6
2022-09-20T03:20:15.312Z,7
2022-09-20T03:21:15.307Z,7
2022-09-20T03:22:15.297Z,7
2022-09-20T03:23:15.324Z,7
2022-09-20T03:24:15.295Z,8
2022-09-20T03:25:15.344Z,7
2022-09-20T03:26:15.329Z,6
2022-09-20T03:27:15.303Z,6
2022-09-20T03:28:15.298Z,7
2022-09-20T03:29:15.298Z,6
2022-09-20T03:30:15.370Z,7
2022-09-20T03:31:15.294Z,7
2022-09-20T03:32:15.426Z,7
2022-09-20T03:33:15.337Z,6
2022-09-20T03:34:15.308Z,7
2022-09-20T03:35:15.321Z,7
2022-09-20T03:36:15.396Z,7
2022-09-20T03:37:15.293Z,7
2022-09-20T03:38:15.419Z,8
2022-09-20T03:39:15.282Z,7
2022-09-20T03:40:15.582Z,7
2022-09-20T03:41:15.331Z,7
2022-09-20T03:42:15.300Z,7
2022-09-20T03:43:15.304Z,8
2022-09-20T03:44:15.298Z,7
2022-09-20T03:45:15.318Z,8
2022-09-20T03:46:15.415Z,7
2022-09-20T03:47:15.296Z,7
2022-09-20T03:48:15.368Z,8
2022-09-20T03:49:15.321Z,8
2022-09-20T03:50:15.310Z,7
2022-09-20T03:51:15.298Z,7
2022-09-20T03:52:15.299Z,7
2022-09-20T03:53:15.322Z,8
2022-09-20T03:54:15.294Z,8
2022-09-20T03:55:15.303Z,7
2022-09-20T03:56:15.339Z,8
2022-09-20T03:57:15.326Z,7
2022-09-20T03:58:15.286Z,7
2022-09-20T03:59:15.284Z,7
2022-09-20T04:00:15.371Z,7
2022-09-20T04:01:15.458Z,8
2022-09-20T04:02:15.325Z,7
2022-09-20T04:03:15.360Z,8
2022-09-20T04:04:15.328Z,7
2022-09-20T04:05:15.312Z,8
2022-09-20T04:06:15.289Z,8
2022-09-20T04:07:15.295Z,7
2022-09-20T04:08:15.323Z,7
2022-09-20T04:09:15.289Z,8
2022-09-20T04:10:15.309Z,7
2022-09-20T04:11:15.378Z,8
2022-09-20T04:12:15.421Z,8
2022-09-20T04:13:15.306Z,7
2022-09-20T04:14:15.669Z,8
2022-09-20T04:15:15.310Z,8
2022-09-20T04:16:15.390Z,8
2022-09-20T04:17:15.341Z,7
2022-09-20T04:18:15.281Z,7
2022-09-20T04:19:15.350Z,7
2022-09-20T04:20:15.375Z,8
2022-09-20T04:21:15.294Z,7
2022-09-20T04:22:15.392Z,7
2022-09-20T04:23:15.307Z,8
2022-09-20T04:24:15.302Z,8
2022-09-20T04:25:15.315Z,8
2022-09-20T04:26:15.294Z,7
2022-09-20T04:27:15.404Z,7
2022-09-20T04:28:15.343Z,7
2022-09-20T04:29:15.320Z,7
2022-09-20T04:30:15.311Z,7
2022-09-20T04:31:15.339Z,8
2022-09-20T04:32:15.327Z,9
2022-09-20T04:33:15.308Z,10
2022-09-20T04:34:15.291Z,15
2022-09-20T04:35:15.351Z,12
2022-09-20T04:36:15.280Z,15
2022-09-20T04:37:15.292Z,13
2022-09-20T04:38:15.387Z,26
2022-09-20T04:39:15.294Z,14
2022-09-20T04:40:15.386Z,14
2022-09-20T04:41:15.411Z,9
2022-09-20T04:42:15.353Z,8
2022-09-20T04:43:15.424Z,8
2022-09-20T04:44:15.366Z,8
2022-09-20T04:45:15.318Z,8
2022-09-20T04:46:15.405Z,8
2022-09-20T04:47:15.302Z,10
2022-09-20T04:48:15.338Z,12
2022-09-20T04:49:15.307Z,19
2022-09-20T04:50:15.384Z,19
2022-09-20T04:51:15.353Z,24
2022-09-20T04:52:15.374Z,19
2022-09-20T04:53:15.489Z,18
2022-09-20T04:54:15.288Z,16
2022-09-20T04:55:15.322Z,12
2022-09-20T04:56:15.338Z,14
2022-09-20T04:57:15.290Z,11
2022-09-20T04:58:15.332Z,11
2022-09-20T04:59:15.321Z,9
2022-09-20T05:00:15.304Z,10
2022-09-20T05:01:15.401Z,9
2022-09-20T05:02:15.416Z,9
2022-09-20T05:03:15.276Z,9
2022-09-20T05:04:15.283Z,9
2022-09-20T05:05:15.297Z,9
2022-09-20T05:06:15.450Z,10
2022-09-20T05:07:15.326Z,10
2022-09-20T05:08:15.305Z,10
2022-09-20T05:09:15.275Z,10
2022-09-20T05:10:15.410Z,10
2022-09-20T05:11:15.277Z,10
2022-09-20T05:12:15.301Z,10
2022-09-20T05:13:15.285Z,10
2022-09-20T05:14:15.322Z,10
2022-09-20T05:15:15.330Z,9
2022-09-20T05:16:15.381Z,9
2022-09-20T05:17:15.380Z,9
2022-09-20T05:18:15.338Z,9
2022-09-20T05:19:15.380Z,8
2022-09-20T05:20:15.444Z,8
2022-09-20T05:21:15.553Z,9
2022-09-20T05:22:15.479Z,9
2022-09-20T05:23:15.442Z,9
2022-09-20T05:24:15.669Z,8
2022-09-20T05:25:15.328Z,8
2022-09-20T05:26:15.386Z,9
2022-09-20T05:27:15.295Z,9
2022-09-20T05:28:15.294Z,8
2022-09-20T05:29:15.346Z,8
2022-09-20T05:30:15.341Z,9
2022-09-20T05:31:15.310Z,9
2022-09-20T05:32:15.316Z,9
2022-09-20T05:33:15.300Z,9
2022-09-20T05:34:15.292Z,9
2022-09-20T05:35:15.295Z,8
2022-09-20T05:36:15.326Z,8
2022-09-20T05:37:15.337Z,8
2022-09-20T05:38:15.332Z,8
2022-09-20T05:39:15.375Z,8
2022-09-20T05:40:15.383Z,7
2022-09-20T05:41:15.300Z,8
2022-09-20T05:42:15.290Z,8
2022-09-20T05:43:15.400Z,8
2022-09-20T05:44:15.299Z,7
2022-09-20T05:45:15.350Z,8
2022-09-20T05:46:15.423Z,8
2022-09-20T05:47:15.310Z,8
2022-09-20T05:48:15.285Z,8
2022-09-20T05:49:15.308Z,7
2022-09-20T05:50:15.291Z,8
2022-09-20T05:51:15.301Z,8
2022-09-20T05:52:15.321Z,7
2022-09-20T05:53:15.336Z,8
2022-09-20T05:54:15.300Z,7
2022-09-20T05:55:15.303Z,7
2022-09-20T05:56:15.300Z,7
2022-09-20T05:57:15.382Z,7
2022-09-20T05:58:15.298Z,7
2022-09-20T05:59:15.533Z,7
2022-09-20T06:00:15.398Z,8
2022-09-20T06:01:15.503Z,7
2022-09-20T06:02:15.375Z,7
2022-09-20T06:03:15.450Z,7
2022-09-20T06:04:15.500Z,7
2022-09-20T06:05:15.294Z,7
2022-09-20T06:06:15.344Z,7
2022-09-20T06:07:15.283Z,7
2022-09-20T06:08:15.356Z,7
2022-09-20T06:09:15.341Z,7
2022-09-20T06:10:15.293Z,7
2022-09-20T06:11:15.294Z,7
2022-09-20T06:12:15.293Z,7
2022-09-20T06:13:15.295Z,8
2022-09-20T06:14:15.358Z,7
2022-09-20T06:15:15.306Z,7
2022-09-20T06:16:15.367Z,8
2022-09-20T06:17:15.400Z,8
2022-09-20T06:18:15.291Z,8
2022-09-20T06:19:15.421Z,9
2022-09-20T06:20:15.314Z,9
2022-09-20T06:21:15.344Z,8
2022-09-20T06:22:15.329Z,8
2022-09-20T06:23:15.358Z,8
2022-09-20T06:24:15.359Z,8
2022-09-20T06:25:15.380Z,7
2022-09-20T06:26:15.303Z,8
2022-09-20T06:27:15.314Z,8
2022-09-20T06:28:15.386Z,8
2022-09-20T06:29:15.290Z,8
2022-09-20T06:30:15.314Z,7
2022-09-20T06:31:15.358Z,9
2022-09-20T06:32:15.403Z,8
2022-09-20T06:33:15.402Z,8
2022-09-20T06:34:15.289Z,8
2022-09-20T06:35:15.304Z,8
2022-09-20T06:36:15.324Z,8
2022-09-20T06:37:15.296Z,8
2022-09-20T06:38:15.292Z,8
2022-09-20T06:39:15.463Z,8
2022-09-20T06:40:15.509Z,8
2022-09-20T06:41:15.358Z,8
2022-09-20T06:42:15.451Z,8
2022-09-20T06:43:15.293Z,9
2022-09-20T06:44:15.286Z,8
2022-09-20T06:45:15.299Z,8
2022-09-20T06:46:15.319Z,7
2022-09-20T06:47:15.399Z,7
2022-09-20T06:48:15.324Z,7
2022-09-20T06:49:15.285Z,9
2022-09-20T06:50:15.310Z,7
2022-09-20T06:51:15.318Z,8
2022-09-20T06:52:15.282Z,8
2022-09-20T06:53:15.330Z,8
2022-09-20T06:54:15.347Z,7
2022-09-20T06:55:15.336Z,8
2022-09-20T06:56:15.391Z,8
2022-09-20T06:57:15.289Z,7
2022-09-20T06:58:15.368Z,7
2022-09-20T06:59:15.383Z,8
2022-09-20T07:00:15.286Z,7
2022-09-20T07:01:26.476Z,7
2022-09-20T07:02:15.451Z,6
2022-09-20T07:03:15.391Z,7
2022-09-20T07:04:15.293Z,8
2022-09-20T07:05:15.278Z,6
2022-09-20T07:06:15.324Z,7
2022-09-20T07:07:15.314Z,7
2022-09-20T07:08:15.318Z,7
2022-09-20T07:09:15.353Z,7
2022-09-20T07:10:15.431Z,7
2022-09-20T07:11:15.369Z,8
2022-09-20T07:12:15.333Z,7
2022-09-20T07:13:15.294Z,7
2022-09-20T07:14:15.288Z,7
2022-09-20T07:15:15.287Z,7
2022-09-20T07:16:15.430Z,7
2022-09-20T07:17:15.286Z,6
2022-09-20T07:18:15.349Z,8
2022-09-20T07:19:15.401Z,7
2022-09-20T07:20:20.656Z,7
2022-09-20T07:21:15.454Z,8
2022-09-20T07:22:15.502Z,8
2022-09-20T07:23:15.615Z,8
2022-09-20T07:24:15.740Z,9
2022-09-20T07:25:15.761Z,8
2022-09-20T07:26:15.780Z,9
2022-09-20T07:27:15.347Z,9
2022-09-20T07:28:15.284Z,10
2022-09-20T07:29:15.353Z,9
2022-09-20T07:30:15.396Z,9
2022-09-20T07:31:15.493Z,9
2022-09-20T07:32:15.289Z,8
2022-09-20T07:33:15.279Z,8
2022-09-20T07:34:15.365Z,8
2022-09-20T07:35:15.370Z,9
2022-09-20T07:36:15.327Z,9
2022-09-20T07:37:15.298Z,9
2022-09-20T07:38:15.378Z,9
2022-09-20T07:39:15.304Z,8
2022-09-20T07:40:15.366Z,9
2022-09-20T07:41:15.360Z,9
2022-09-20T07:42:15.436Z,8
2022-09-20T07:43:15.448Z,8
2022-09-20T07:44:15.306Z,8
2022-09-20T07:45:15.290Z,8
2022-09-20T07:46:15.382Z,8
2022-09-20T07:47:15.373Z,8
2022-09-20T07:48:15.369Z,9
2022-09-20T07:49:15.376Z,8
2022-09-20T07:50:15.322Z,8
2022-09-20T07:51:15.384Z,9
2022-09-20T07:52:15.340Z,11
2022-09-20T07:53:15.301Z,9
2022-09-20T07:54:15.306Z,9
2022-09-20T07:55:15.331Z,8
2022-09-20T07:56:15.340Z,9
2022-09-20T07:57:15.335Z,8
2022-09-20T07:58:15.331Z,10
2022-09-20T07:59:15.330Z,10
2022-09-20T08:00:15.293Z,8
2022-09-20T08:01:15.326Z,8
2022-09-20T08:02:15.382Z,8
2022-09-20T08:03:15.300Z,7
2022-09-20T08:04:15.283Z,8
2022-09-20T08:05:15.340Z,8
2022-09-20T08:06:15.398Z,8
2022-09-20T08:07:15.330Z,8
2022-09-20T08:08:15.282Z,8
2022-09-20T08:09:15.345Z,8
2022-09-20T08:10:15.284Z,6
2022-09-20T08:11:15.306Z,7
2022-09-20T08:14:15.279Z,7
2022-09-20T08:15:15.342Z,7
2022-09-20T08:16:15.339Z,7
2022-09-20T08:17:15.302Z,7
2022-09-20T08:18:15.328Z,7
2022-09-20T08:19:15.301Z,9
2022-09-20T08:20:15.343Z,7
2022-09-20T08:21:15.384Z,6
2022-09-20T08:22:15.287Z,6
2022-09-20T08:23:23.532Z,6
2022-09-20T08:24:15.316Z,7
2022-09-20T08:25:15.297Z,8
2022-09-20T08:26:15.303Z,6
2022-09-20T08:27:15.310Z,6
2022-09-20T08:28:15.343Z,6
2022-09-20T08:29:15.358Z,7
2022-09-20T08:30:15.316Z,6
2022-09-20T08:31:15.350Z,6
2022-09-20T08:32:15.300Z,6
2022-09-20T08:33:15.286Z,5
2022-09-20T08:34:15.333Z,5
2022-09-20T08:35:15.287Z,5
2022-09-20T08:36:15.372Z,5
2022-09-20T08:37:15.330Z,4
2022-09-20T08:40:15.370Z,4
2022-09-20T08:41:15.418Z,5
2022-09-20T08:42:15.395Z,5
2022-09-20T08:43:15.403Z,6
2022-09-20T08:44:15.324Z,6
2022-09-20T08:45:22.301Z,6
2022-09-20T08:46:15.456Z,6
2022-09-20T08:47:15.290Z,6
2022-09-20T08:48:15.283Z,6
2022-09-20T08:49:15.365Z,6
2022-09-20T08:50:17.672Z,6
2022-09-20T08:51:22.366Z,5
2022-09-20T08:52:15.371Z,5
2022-09-20T08:53:20.965Z,5
2022-09-20T08:54:15.319Z,5
2022-09-20T08:55:15.300Z,4
2022-09-20T08:56:15.314Z,3
2022-09-20T08:57:15.294Z,3
2022-09-20T08:58:15.321Z,4
2022-09-20T08:59:15.334Z,4
2022-09-20T09:00:15.412Z,4
2022-09-20T09:01:15.352Z,4
2022-09-20T09:02:15.394Z,4
2022-09-20T09:03:15.344Z,4
2022-09-20T09:04:15.298Z,4
2022-09-20T09:05:15.285Z,5
2022-09-20T09:06:18.478Z,5
2022-09-20T09:07:15.338Z,5
2022-09-20T09:08:15.339Z,4
2022-09-20T09:09:15.326Z,4
2022-09-20T09:10:15.417Z,4
2022-09-20T09:11:15.718Z,4
2022-09-20T09:12:15.610Z,4
2022-09-20T09:13:15.499Z,4
2022-09-20T09:14:15.309Z,4
2022-09-20T09:15:17.584Z,4
2022-09-20T09:16:22.302Z,4
2022-09-20T09:17:15.298Z,4
2022-09-20T09:18:15.302Z,3
2022-09-20T09:19:15.299Z,3
2022-09-20T09:20:15.365Z,3
2022-09-20T09:21:15.460Z,3
2022-09-20T09:22:15.357Z,3
2022-09-20T09:23:15.359Z,3
2022-09-20T09:24:15.388Z,3
2022-09-20T09:25:15.282Z,3
2022-09-20T09:26:15.302Z,2
2022-09-20T09:27:15.400Z,2
2022-09-20T09:28:15.307Z,2
2022-09-20T09:29:15.340Z,2
2022-09-20T09:30:15.283Z,2
2022-09-20T09:31:15.441Z,2
2022-09-20T09:32:15.315Z,2
2022-09-20T09:33:15.326Z,2
2022-09-20T09:34:15.283Z,3
2022-09-20T09:35:15.292Z,2
2022-09-20T09:36:15.286Z,2
2022-09-20T09:37:15.291Z,2
2022-09-20T09:38:15.454Z,3
2022-09-20T09:39:15.342Z,2
2022-09-20T09:40:15.351Z,2
2022-09-20T09:41:15.297Z,2
2022-09-20T09:42:15.296Z,2
2022-09-20T09:43:15.384Z,3
2022-09-20T09:44:15.293Z,2
2022-09-20T09:45:15.392Z,2
2022-09-20T09:46:15.728Z,2
2022-09-20T09:47:15.330Z,2
2022-09-20T09:48:15.302Z,2
2022-09-20T09:49:15.800Z,2
2022-09-20T09:50:15.434Z,2
2022-09-20T09:51:15.339Z,2
2022-09-20T09:52:15.277Z,2
2022-09-20T09:53:15.290Z,2
2022-09-20T09:54:15.359Z,2
2022-09-20T09:55:15.347Z,2
2022-09-20T09:56:15.386Z,3
2022-09-20T09:57:15.306Z,2
2022-09-20T09:58:15.301Z,2
2022-09-20T09:59:15.299Z,2
2022-09-20T10:00:21.584Z,2
2022-09-20T10:01:15.389Z,2
2022-09-20T10:02:15.525Z,2
2022-09-20T10:03:15.417Z,2
2022-09-20T10:04:15.293Z,2
2022-09-20T10:05:15.295Z,2
2022-09-20T10:06:15.337Z,2
2022-09-20T10:07:15.281Z,2
2022-09-20T10:08:15.345Z,2
2022-09-20T10:09:15.316Z,2
2022-09-20T10:10:15.361Z,2
2022-09-20T10:11:15.327Z,2
2022-09-20T10:12:15.286Z,2
2022-09-20T10:13:15.389Z,1
2022-09-20T10:14:15.312Z,2
2022-09-20T10:15:15.312Z,2
2022-09-20T10:16:15.325Z,2
2022-09-20T10:17:15.357Z,2
2022-09-20T10:18:15.344Z,2
2022-09-20T10:19:18.405Z,2
2022-09-20T10:20:15.301Z,2
2022-09-20T10:21:15.304Z,2
2022-09-20T10:22:15.334Z,2
2022-09-20T10:23:45.037Z,2
2022-09-20T10:24:15.306Z,2
2022-09-20T10:25:15.347Z,2
2022-09-20T10:26:15.358Z,3
2022-09-20T10:27:15.360Z,3
2022-09-20T10:28:15.468Z,2
2022-09-20T10:29:15.290Z,2
2022-09-20T10:30:15.379Z,2
2022-09-20T10:31:15.490Z,2
2022-09-20T10:32:15.629Z,2
2022-09-20T10:33:15.409Z,2
2022-09-20T10:34:15.337Z,2
2022-09-20T10:35:15.293Z,2
2022-09-20T10:36:15.293Z,3
2022-09-20T10:37:15.324Z,2
2022-09-20T10:38:15.339Z,2
2022-09-20T10:39:15.312Z,2
2022-09-20T10:40:15.396Z,2
2022-09-20T10:41:15.356Z,2
2022-09-20T10:42:15.462Z,2
2022-09-20T10:43:15.359Z,2
2022-09-20T10:44:15.320Z,2
2022-09-20T10:45:36.069Z,2
2022-09-20T10:46:31.466Z,2
2022-09-20T10:47:15.325Z,2
2022-09-20T10:48:15.302Z,2
2022-09-20T10:49:15.405Z,2
2022-09-20T10:50:15.293Z,2
2022-09-20T10:51:15.299Z,2
2022-09-20T10:52:15.317Z,2
2022-09-20T10:53:15.356Z,2
2022-09-20T10:54:15.403Z,2
2022-09-20T10:55:15.300Z,2
2022-09-20T10:56:15.346Z,2
2022-09-20T10:57:15.457Z,2
2022-09-20T10:58:15.309Z,2
2022-09-20T10:59:15.302Z,2
2022-09-20T11:00:15.292Z,1
2022-09-20T11:01:15.385Z,2
2022-09-20T11:02:15.489Z,2
2022-09-20T11:03:15.406Z,2
2022-09-20T11:04:15.365Z,2
2022-09-20T11:05:15.342Z,2
2022-09-20T11:06:15.296Z,2
2022-09-20T11:07:15.321Z,2
2022-09-20T11:08:15.320Z,2
2022-09-20T11:09:15.343Z,2
2022-09-20T11:10:15.357Z,2
2022-09-20T11:11:15.334Z,2
2022-09-20T11:12:15.349Z,2
2022-09-20T11:13:15.332Z,2
2022-09-20T11:14:15.302Z,2
2022-09-20T11:15:15.293Z,2
2022-09-20T11:16:15.421Z,2
2022-09-20T11:17:15.377Z,2
2022-09-20T11:18:15.292Z,2
2022-09-20T11:19:15.295Z,2
2022-09-20T11:20:15.396Z,2
2022-09-20T11:21:15.399Z,2
2022-09-20T11:22:15.306Z,2
2022-09-20T11:23:15.287Z,2
2022-09-20T11:24:15.357Z,2
2022-09-20T11:25:19.988Z,2
2022-09-20T11:26:15.277Z,2
2022-09-20T11:27:15.305Z,2
2022-09-20T11:28:15.347Z,2
2022-09-20T11:29:15.300Z,2
2022-09-20T11:30:15.295Z,2
2022-09-20T11:31:15.401Z,2
2022-09-20T11:32:15.383Z,2
2022-09-20T11:33:15.409Z,1
2022-09-20T11:34:15.330Z,2
2022-09-20T11:35:15.358Z,2
2022-09-20T11:36:15.411Z,2
2022-09-20T11:37:15.358Z,2
2022-09-20T11:38:15.392Z,2
2022-09-20T11:39:15.427Z,2
2022-09-20T11:40:15.616Z,2
2022-09-20T11:41:15.493Z,2
2022-09-20T11:42:15.359Z,2
2022-09-20T11:43:15.389Z,2
2022-09-20T11:44:15.334Z,2
2022-09-20T11:45:15.343Z,2
2022-09-20T11:46:15.467Z,1
2022-09-20T11:47:26.599Z,1
2022-09-20T11:48:15.595Z,1
2022-09-20T11:49:15.594Z,2
2022-09-20T11:50:15.504Z,2
2022-09-20T11:51:15.638Z,2
2022-09-20T11:52:15.467Z,1
2022-09-20T11:53:15.555Z,1
2022-09-20T11:54:15.311Z,2
2022-09-20T11:55:15.309Z,2
2022-09-20T11:56:15.299Z,2
2022-09-20T11:57:15.300Z,1
2022-09-20T11:58:15.294Z,1
2022-09-20T11:59:15.440Z,2
2022-09-20T12:00:15.343Z,2
2022-09-20T12:01:15.351Z,2
2022-09-20T12:02:15.477Z,2
2022-09-20T12:03:15.403Z,2
2022-09-20T12:04:31.791Z,1
2022-09-20T12:05:15.307Z,1
2022-09-20T12:06:15.385Z,2
2022-09-20T12:07:17.862Z,2
2022-09-20T12:08:15.395Z,2
2022-09-20T12:09:15.316Z,2
2022-09-20T12:10:15.304Z,2
2022-09-20T12:11:15.303Z,2
2022-09-20T12:12:15.296Z,2
2022-09-20T12:13:15.345Z,2
2022-09-20T12:14:15.333Z,1
2022-09-20T12:15:15.343Z,2
2022-09-20T12:16:15.360Z,1
2022-09-20T12:17:15.304Z,2
2022-09-20T12:18:15.301Z,2
2022-09-20T12:19:15.362Z,2
2022-09-20T12:20:19.264Z,2
2022-09-20T12:21:15.953Z,2
2022-09-20T12:22:15.389Z,2
2022-09-20T12:23:15.396Z,2
2022-09-20T12:24:15.311Z,2
2022-09-20T12:25:15.296Z,2
2022-09-20T12:26:15.298Z,2
2022-09-20T12:27:15.312Z,2
2022-09-20T12:28:15.422Z,2
2022-09-20T12:29:15.330Z,2
2022-09-20T12:30:15.342Z,2
2022-09-20T12:31:15.369Z,2
2022-09-20T12:32:15.301Z,3
2022-09-20T12:33:15.310Z,3
2022-09-20T12:34:15.306Z,2
2022-09-20T12:35:15.314Z,2
2022-09-20T12:36:15.303Z,2
2022-09-20T12:37:15.305Z,2
2022-09-20T12:38:15.380Z,2
2022-09-20T12:39:21.262Z,2
2022-09-20T12:40:15.457Z,2
2022-09-20T12:41:15.399Z,2
2022-09-20T12:42:18.506Z,3
2022-09-20T12:43:15.307Z,2
2022-09-20T12:44:15.304Z,2
2022-09-20T12:45:15.306Z,2
2022-09-20T12:46:15.396Z,2
2022-09-20T12:47:15.334Z,2
2022-09-20T12:48:15.307Z,2
2022-09-20T12:49:15.302Z,2
2022-09-20T12:50:15.364Z,2
2022-09-20T12:51:15.290Z,2
2022-09-20T12:52:15.375Z,2
2022-09-20T12:53:15.426Z,2
2022-09-20T12:54:15.533Z,1
2022-09-20T12:55:15.401Z,2
2022-09-20T12:56:15.473Z,2
2022-09-20T12:57:15.396Z,2
2022-09-20T12:58:15.556Z,2
2022-09-20T12:59:15.592Z,2
2022-09-20T13:00:15.643Z,2
2022-09-20T13:01:15.756Z,2
2022-09-20T13:02:15.578Z,2
2022-09-20T13:03:15.303Z,2
2022-09-20T13:04:15.685Z,2
2022-09-20T13:05:15.308Z,2
2022-09-20T13:06:15.359Z,2
2022-09-20T13:07:15.370Z,2
2022-09-20T13:08:15.375Z,2
2022-09-20T13:09:15.376Z,2
2022-09-20T13:10:15.352Z,2
2022-09-20T13:11:15.311Z,2
2022-09-20T13:12:15.293Z,3
2022-09-20T13:13:15.312Z,2
2022-09-20T13:14:15.304Z,2
2022-09-20T13:15:15.359Z,2
2022-09-20T13:16:15.372Z,2
2022-09-20T13:17:15.357Z,2
2022-09-20T13:18:15.377Z,2
2022-09-20T13:19:15.340Z,1
2022-09-20T13:20:15.295Z,1
2022-09-20T13:21:15.320Z,1
2022-09-20T13:22:15.361Z,1
2022-09-20T13:23:15.300Z,1
2022-09-20T13:24:15.310Z,2
2022-09-20T13:25:15.347Z,1
2022-09-20T13:26:15.290Z,2
2022-09-20T13:27:19.293Z,1
2022-09-20T13:28:20.464Z,1
2022-09-20T13:29:15.373Z,1
2022-09-20T13:30:15.323Z,2
2022-09-20T13:31:15.379Z,1
2022-09-20T13:32:15.433Z,2
2022-09-20T13:33:15.353Z,1
2022-09-20T13:34:15.308Z,1
2022-09-20T13:35:15.342Z,2
2022-09-20T13:36:15.370Z,2
2022-09-20T13:37:15.385Z,2
2022-09-20T13:38:15.371Z,1
2022-09-20T13:39:15.315Z,1
2022-09-20T13:40:15.395Z,1
2022-09-20T13:41:15.403Z,2
2022-09-20T13:42:15.327Z,2
2022-09-20T13:43:23.728Z,1
2022-09-20T13:44:15.320Z,2
2022-09-20T13:45:15.305Z,2
2022-09-20T13:46:15.375Z,1
2022-09-20T13:47:15.324Z,2
2022-09-20T13:48:15.360Z,1
2022-09-20T13:49:15.349Z,1
2022-09-20T13:50:15.337Z,1
2022-09-20T13:51:15.303Z,1
2022-09-20T13:52:15.304Z,1
2022-09-20T13:53:33.306Z,2
2022-09-20T13:54:15.357Z,1
2022-09-20T13:55:15.306Z,1
2022-09-20T13:56:15.348Z,1
2022-09-20T13:57:15.395Z,1
2022-09-20T13:58:15.314Z,1
2022-09-20T13:59:19.044Z,1
2022-09-20T14:00:15.362Z,1
2022-09-20T14:01:15.381Z,1
2022-09-20T14:02:15.361Z,1
2022-09-20T14:03:15.307Z,1
2022-09-20T14:04:15.356Z,1
2022-09-20T14:05:15.327Z,2
2022-09-20T14:06:15.313Z,1
2022-09-20T14:07:15.319Z,1
2022-09-20T14:08:15.340Z,1
2022-09-20T14:09:15.389Z,1
2022-09-20T14:10:15.300Z,1
2022-09-20T14:11:15.320Z,1
2022-09-20T14:12:15.383Z,1
2022-09-20T14:13:15.402Z,1
2022-09-20T14:14:19.867Z,1
2022-09-20T14:15:15.310Z,1
2022-09-20T14:16:15.301Z,1
2022-09-20T14:17:15.363Z,1
2022-09-20T14:18:15.305Z,1
2022-09-20T14:19:15.426Z,1
2022-09-20T14:20:15.425Z,1
2022-09-20T14:21:15.327Z,1
2022-09-20T14:22:15.455Z,1
2022-09-20T14:23:15.313Z,2
2022-09-20T14:24:15.324Z,1
2022-09-20T14:25:15.336Z,1
2022-09-20T14:26:15.377Z,2
2022-09-20T14:27:15.379Z,1
2022-09-20T14:28:15.351Z,1
2022-09-20T14:29:15.386Z,1
2022-09-20T14:30:15.306Z,1
2022-09-20T14:31:15.362Z,1
2022-09-20T14:32:15.398Z,1
2022-09-20T14:33:15.423Z,1
2022-09-20T14:34:15.312Z,1
2022-09-20T14:35:15.361Z,1
2022-09-20T14:36:15.394Z,1
2022-09-20T14:37:15.326Z,1
2022-09-20T14:38:15.335Z,1
2022-09-20T14:39:15.513Z,1
2022-09-20T14:40:15.324Z,1
2022-09-20T14:41:15.364Z,1
2022-09-20T14:42:15.370Z,1
2022-09-20T14:43:15.359Z,1
2022-09-20T14:44:15.319Z,1
2022-09-20T14:45:15.306Z,1
2022-09-20T14:46:15.408Z,1
2022-09-20T14:47:15.327Z,1
2022-09-20T14:48:15.409Z,1
2022-09-20T14:49:15.310Z,1
2022-09-20T14:50:15.387Z,2